Terminal Aerodrome Forecast
Issued by NWS

Home | Current Version | Previous Version | Graphics & Text | Print | Product List | Glossary Off
Versions: 1 2 3 4 5 6 7 8 9 10 11 12 13 14 15 16 17 18

000
FTUS43 KABR 182359 AAA
TAFATY
TAF AMD
KATY 182359Z 1900/1924 01018G26KT P6SM OVC011
     FM190100 01019G26KT P6SM OVC015
     FM190300 01019G27KT P6SM VCSH OVC015
     FM190500 01019G26KT P6SM VCSH OVC020
     FM190700 01018G26KT 6SM -SN OVC035
     FM191600 02017G24KT 2SM -SN OVC025
     FM191800 03017G24KT P6SM OVC025
     FM191900 03017G24KT 2SM -SN OVC025
     FM192100 03017G24KT 2SM -SN BLSN OVC015=

USA.gov is the U.S. government's official web portal to all federal, state and local government web resources and services.